createdAt,value
2022-09-28T00:02:23.007Z,98390.00
2022-09-28T00:04:56.366Z,98387.00
2022-09-28T00:07:31.183Z,98388.00
2022-09-28T00:10:05.153Z,98388.00
2022-09-28T00:12:38.965Z,98391.00
2022-09-28T00:15:12.616Z,98384.00
2022-09-28T00:17:46.261Z,98391.00
2022-09-28T00:20:22.276Z,98385.00
2022-09-28T00:22:58.354Z,98371.00
2022-09-28T00:25:32.258Z,98383.00
2022-09-28T00:28:06.442Z,98379.00
2022-09-28T00:30:39.774Z,98364.00
2022-09-28T00:33:13.111Z,98384.00
2022-09-28T00:35:47.509Z,98379.00
2022-09-28T00:38:22.214Z,98359.00
2022-09-28T00:40:56.761Z,98376.00
2022-09-28T00:43:30.186Z,98370.00
2022-09-28T00:46:11.391Z,98359.00
2022-09-28T00:48:57.256Z,98365.00
2022-09-28T00:51:32.985Z,98369.00
2022-09-28T00:54:10.136Z,98363.00
2022-09-28T00:56:48.221Z,98363.00
2022-09-28T00:59:24.440Z,98372.00
2022-09-28T01:01:57.997Z,98360.00
2022-09-28T01:04:32.617Z,98361.00
2022-09-28T01:07:06.344Z,98356.00
2022-09-28T01:09:42.368Z,98357.00
2022-09-28T01:12:16.285Z,98361.00
2022-09-28T01:14:51.645Z,98352.00
2022-09-28T01:17:34.098Z,98352.00
2022-09-28T01:20:57.158Z,98362.00
2022-09-28T01:24:01.399Z,98359.00
2022-09-28T01:27:11.985Z,98350.00
2022-09-28T01:29:55.468Z,98344.00
2022-09-28T01:32:43.129Z,98351.00
2022-09-28T01:35:29.311Z,98351.00
2022-09-28T01:38:08.574Z,98341.00
2022-09-28T01:40:43.120Z,98340.00
2022-09-28T01:43:24.025Z,98337.00
2022-09-28T01:46:05.542Z,98339.00
2022-09-28T01:48:47.815Z,98327.00
2022-09-28T01:51:35.553Z,98339.00
2022-09-28T01:54:14.236Z,98343.00
2022-09-28T01:56:53.889Z,98350.00
2022-09-28T01:59:32.018Z,98349.00
2022-09-28T02:02:13.652Z,98341.00
2022-09-28T02:04:54.775Z,98341.00
2022-09-28T02:07:39.399Z,98342.00
2022-09-28T02:10:19.272Z,98344.00
2022-09-28T02:12:58.561Z,98341.00
2022-09-28T02:15:41.929Z,98336.00
2022-09-28T02:18:15.649Z,98344.00
2022-09-28T02:21:01.191Z,98352.00
2022-09-28T02:23:40.174Z,98336.00
2022-09-28T02:26:21.666Z,98347.00
2022-09-28T02:28:55.063Z,98345.00
2022-09-28T02:31:30.010Z,98343.00
2022-09-28T02:34:07.039Z,98347.00
2022-09-28T02:36:40.827Z,98341.00
2022-09-28T02:39:16.958Z,98342.00
2022-09-28T02:42:02.984Z,98345.00
2022-09-28T02:45:03.787Z,98335.00
2022-09-28T02:47:59.625Z,98351.00
2022-09-28T02:50:48.096Z,98348.00
2022-09-28T02:53:58.967Z,98352.00
2022-09-28T02:56:56.772Z,98346.00
2022-09-28T02:59:50.835Z,98355.00
2022-09-28T03:02:32.266Z,98350.00
2022-09-28T03:05:20.009Z,98360.00
2022-09-28T03:08:01.217Z,98356.00
2022-09-28T03:10:42.898Z,98346.00
2022-09-28T03:13:19.144Z,98350.00
2022-09-28T03:15:52.490Z,98335.00
2022-09-28T03:18:25.848Z,98351.00
2022-09-28T03:21:01.730Z,98351.00
2022-09-28T03:23:35.423Z,98352.00
2022-09-28T03:26:09.677Z,98354.00
2022-09-28T03:28:42.960Z,98351.00
2022-09-28T03:31:16.347Z,98348.00
2022-09-28T03:33:49.842Z,98346.00
2022-09-28T03:36:24.593Z,98351.00
2022-09-28T03:38:59.554Z,98361.00
2022-09-28T03:41:33.012Z,98347.00
2022-09-28T03:44:06.534Z,98353.00
2022-09-28T03:46:39.780Z,98353.00
2022-09-28T03:49:13.219Z,98355.00
2022-09-28T03:51:48.718Z,98353.00
2022-09-28T03:54:21.984Z,98352.00
2022-09-28T03:56:55.331Z,98345.00
2022-09-28T03:59:28.959Z,98355.00
2022-09-28T04:02:02.305Z,98346.00
2022-09-28T04:04:35.798Z,98355.00
2022-09-28T04:07:10.564Z,98340.00
2022-09-28T04:09:45.032Z,98351.00
2022-09-28T04:12:18.464Z,98364.00
2022-09-28T04:14:52.005Z,98358.00
2022-09-28T04:17:25.428Z,98362.00
2022-09-28T04:19:59.168Z,98359.00
2022-09-28T04:22:34.085Z,98349.00
2022-09-28T04:25:08.578Z,98343.00
2022-09-28T04:27:59.224Z,98366.00
2022-09-28T04:30:33.307Z,98366.00
2022-09-28T04:33:06.603Z,98363.00
2022-09-28T04:35:39.994Z,98366.00
2022-09-28T04:38:14.684Z,98352.00
2022-09-28T04:40:50.783Z,98367.00
2022-09-28T04:43:24.380Z,98358.00
2022-09-28T04:46:01.088Z,98358.00
2022-09-28T04:48:34.604Z,98365.00
2022-09-28T04:51:08.466Z,98366.00
2022-09-28T04:53:43.299Z,98368.00
2022-09-28T04:56:19.196Z,98365.00
2022-09-28T04:58:52.960Z,98364.00
2022-09-28T05:01:26.572Z,98364.00
2022-09-28T05:04:00.579Z,98324.00
2022-09-28T05:06:33.879Z,98358.00
2022-09-28T05:09:09.447Z,98358.00
2022-09-28T05:11:43.147Z,98357.00
2022-09-28T05:14:16.820Z,98368.00
2022-09-28T05:16:50.541Z,98361.00
2022-09-28T05:19:23.844Z,98369.00
2022-09-28T05:21:58.150Z,98368.00
2022-09-28T05:24:33.149Z,98353.00
2022-09-28T05:27:06.711Z,98359.00
2022-09-28T05:29:40.112Z,98367.00
2022-09-28T05:32:13.480Z,98361.00
2022-09-28T05:34:46.723Z,98364.00
2022-09-28T05:37:20.057Z,98355.00
2022-09-28T05:39:54.854Z,98367.00
2022-09-28T05:42:28.167Z,98355.00
2022-09-28T05:45:03.380Z,98357.00
2022-09-28T05:47:39.719Z,98359.00
2022-09-28T05:50:15.910Z,98356.00
2022-09-28T05:52:50.266Z,98348.00
2022-09-28T05:55:27.364Z,98355.00
2022-09-28T05:58:01.890Z,98362.00
2022-09-28T06:00:38.538Z,98364.00
2022-09-28T06:03:14.871Z,98352.00
2022-09-28T06:05:48.584Z,98356.00
2022-09-28T06:08:22.417Z,98368.00
2022-09-28T06:11:01.791Z,98364.00
2022-09-28T06:13:35.103Z,98366.00
2022-09-28T06:16:10.547Z,98374.00
2022-09-28T06:18:43.985Z,98367.00
2022-09-28T06:21:17.534Z,98375.00
2022-09-28T06:23:50.941Z,98388.00
2022-09-28T06:26:25.946Z,98362.00
2022-09-28T06:29:00.495Z,98366.00
2022-09-28T06:31:34.033Z,98384.00
2022-09-28T06:34:07.348Z,98384.00
2022-09-28T06:36:41.014Z,98393.00
2022-09-28T06:39:14.544Z,98397.00
2022-09-28T06:41:49.219Z,98401.00
2022-09-28T06:44:22.499Z,98401.00
2022-09-28T06:46:57.091Z,98404.00
2022-09-28T06:49:30.482Z,98407.00
2022-09-28T06:52:03.827Z,98409.00
2022-09-28T06:54:37.153Z,98418.00
2022-09-28T06:57:12.106Z,98413.00
2022-09-28T06:59:45.425Z,98413.00
2022-09-28T07:02:19.722Z,98393.00
2022-09-28T07:04:53.036Z,98420.00
2022-09-28T07:07:27.058Z,98420.00
2022-09-28T07:10:00.516Z,98419.00
2022-09-28T07:12:36.611Z,98418.00
2022-09-28T07:15:12.211Z,98414.00
2022-09-28T07:17:58.720Z,98434.00
2022-09-28T07:20:48.564Z,98432.00
2022-09-28T07:23:27.514Z,98416.00
2022-09-28T07:26:08.737Z,98429.00
2022-09-28T07:28:44.201Z,98442.00
2022-09-28T07:31:17.580Z,98444.00
2022-09-28T07:33:52.424Z,98456.00
2022-09-28T07:36:25.982Z,98444.00
2022-09-28T07:38:59.606Z,98453.00
2022-09-28T07:41:32.765Z,98462.00
2022-09-28T07:44:07.823Z,98455.00
2022-09-28T07:46:41.231Z,98452.00
2022-09-28T07:49:16.767Z,98449.00
2022-09-28T07:51:50.150Z,98467.00
2022-09-28T07:54:23.472Z,98461.00
2022-09-28T07:56:56.955Z,98484.00
2022-09-28T07:59:31.795Z,98414.00
2022-09-28T08:02:05.264Z,98457.00
2022-09-28T08:04:45.598Z,98470.00
2022-09-28T08:07:23.692Z,98480.00
2022-09-28T08:09:57.544Z,98474.00
2022-09-28T08:12:30.955Z,98481.00
2022-09-28T08:15:10.305Z,98484.00
2022-09-28T08:17:48.541Z,98480.00
2022-09-28T08:20:39.692Z,98482.00
2022-09-28T08:23:13.265Z,98486.00
2022-09-28T08:25:49.865Z,98492.00
2022-09-28T08:28:24.849Z,98492.00
2022-09-28T08:31:02.287Z,98488.00
2022-09-28T08:33:36.683Z,98502.00
2022-09-28T08:36:11.955Z,98503.00
2022-09-28T08:38:45.306Z,98499.00
2022-09-28T08:41:34.942Z,98506.00
2022-09-28T08:44:24.039Z,98496.00
2022-09-28T08:47:08.555Z,98520.00
2022-09-28T08:49:48.702Z,98515.00
2022-09-28T08:52:28.078Z,98517.00
2022-09-28T08:55:08.539Z,98519.00
2022-09-28T08:57:49.423Z,98520.00
2022-09-28T09:00:30.934Z,98529.00
2022-09-28T09:03:13.222Z,98517.00
2022-09-28T09:06:04.677Z,98529.00
2022-09-28T09:09:00.151Z,98536.00
2022-09-28T09:11:58.229Z,98539.00
2022-09-28T09:15:39.932Z,98551.00
2022-09-28T09:18:32.546Z,98527.00
2022-09-28T09:21:16.543Z,98554.00
2022-09-28T09:24:06.816Z,98550.00
2022-09-28T09:26:42.147Z,98555.00
2022-09-28T09:29:33.205Z,98555.00
2022-09-28T09:32:32.441Z,98559.00
2022-09-28T09:35:33.326Z,98563.00
2022-09-28T09:38:30.825Z,98559.00
2022-09-28T09:41:23.103Z,98545.00
2022-09-28T09:44:21.817Z,98571.00
2022-09-28T09:47:06.210Z,98560.00
2022-09-28T09:49:46.144Z,98574.00
2022-09-28T09:52:28.220Z,98566.00
2022-09-28T09:55:30.092Z,98574.00
2022-09-28T09:58:12.874Z,98570.00
2022-09-28T10:00:51.886Z,98578.00
2022-09-28T10:03:30.489Z,98581.00
2022-09-28T10:06:10.442Z,98578.00
2022-09-28T10:08:50.090Z,98573.00
2022-09-28T10:11:32.620Z,98567.00
2022-09-28T10:14:08.209Z,98579.00
2022-09-28T10:16:42.045Z,98546.00
2022-09-28T10:19:17.707Z,98578.00
2022-09-28T10:21:52.793Z,98578.00
2022-09-28T10:24:32.821Z,98582.00
2022-09-28T10:27:12.812Z,98570.00
2022-09-28T10:29:55.400Z,98585.00
2022-09-28T10:32:39.396Z,98580.00
2022-09-28T10:35:26.926Z,98565.00
2022-09-28T10:38:04.666Z,98592.00
2022-09-28T10:40:47.271Z,98590.00
2022-09-28T10:43:28.327Z,98588.00
2022-09-28T10:46:06.188Z,98597.00
2022-09-28T10:48:53.004Z,98588.00
2022-09-28T10:51:42.742Z,98593.00
2022-09-28T10:54:19.304Z,98591.00
2022-09-28T10:56:55.395Z,98584.00
2022-09-28T10:59:41.501Z,98597.00
2022-09-28T11:02:25.993Z,98600.00
2022-09-28T11:05:02.786Z,98596.00
2022-09-28T11:07:48.269Z,98596.00
2022-09-28T11:10:28.498Z,98588.00
2022-09-28T11:13:02.401Z,98584.00
2022-09-28T11:15:46.710Z,98592.00
2022-09-28T11:18:28.305Z,98588.00
2022-09-28T11:21:12.859Z,98590.00
2022-09-28T11:24:05.874Z,98595.00
2022-09-28T11:26:43.258Z,98595.00
2022-09-28T11:29:33.974Z,98576.00
2022-09-28T11:32:15.708Z,98568.00
2022-09-28T11:34:59.717Z,98590.00
2022-09-28T11:38:04.987Z,98578.00
2022-09-28T11:40:58.437Z,98593.00
2022-09-28T11:44:05.647Z,98574.00
2022-09-28T11:46:53.184Z,98588.00
2022-09-28T11:49:40.286Z,98596.00
2022-09-28T11:52:23.509Z,98600.00
2022-09-28T11:55:03.141Z,98604.00
2022-09-28T11:57:43.226Z,98581.00
2022-09-28T12:00:22.362Z,98591.00
2022-09-28T12:03:06.348Z,98575.00
2022-09-28T12:05:48.413Z,98594.00
2022-09-28T12:08:28.843Z,98585.00
2022-09-28T12:11:09.838Z,98596.00
2022-09-28T12:13:48.820Z,98584.00
2022-09-28T12:19:30.816Z,98593.00
2022-09-28T12:22:17.920Z,98591.00
2022-09-28T12:24:58.542Z,98600.00
2022-09-28T12:27:41.623Z,98596.00
2022-09-28T12:30:19.863Z,98594.00
2022-09-28T12:33:03.075Z,98602.00
2022-09-28T12:35:56.190Z,98600.00
2022-09-28T12:39:19.048Z,98606.00
2022-09-28T12:42:14.516Z,98606.00
2022-09-28T12:45:18.936Z,98597.00
2022-09-28T12:48:53.531Z,98594.00
2022-09-28T12:51:51.765Z,98603.00
2022-09-28T12:55:04.157Z,98542.00
2022-09-28T12:57:50.806Z,98590.00
2022-09-28T13:00:32.340Z,98598.00
2022-09-28T13:04:02.909Z,98596.00
2022-09-28T13:06:51.537Z,98596.00
2022-09-28T13:09:29.067Z,98597.00
2022-09-28T13:12:35.477Z,98588.00
2022-09-28T13:15:47.081Z,98601.00
2022-09-28T13:18:30.354Z,98599.00
2022-09-28T13:21:32.995Z,98587.00
2022-09-28T13:24:31.549Z,98589.00
2022-09-28T13:27:14.402Z,98587.00
2022-09-28T13:29:51.212Z,98556.00
2022-09-28T13:32:26.858Z,98594.00
2022-09-28T13:35:02.927Z,98590.00
2022-09-28T13:37:36.423Z,98588.00
2022-09-28T13:40:11.355Z,98589.00
2022-09-28T13:43:19.617Z,98588.00
2022-09-28T13:46:09.697Z,98582.00
2022-09-28T13:48:58.366Z,98582.00
2022-09-28T13:51:50.218Z,98580.00
2022-09-28T13:54:52.092Z,98570.00
2022-09-28T13:57:36.132Z,98584.00
2022-09-28T14:00:21.844Z,98591.00
2022-09-28T14:03:05.189Z,98590.00
2022-09-28T14:06:08.119Z,98588.00
2022-09-28T14:09:06.440Z,98590.00
2022-09-28T14:11:44.573Z,98577.00
2022-09-28T14:14:51.510Z,98585.00
